createdAt,value
2023-03-04T00:00:17.082Z,96353.56
2023-03-04T00:02:46.471Z,96355.19
2023-03-04T00:05:13.195Z,96354.44
2023-03-04T00:07:42.160Z,96345.53
2023-03-04T00:10:14.344Z,96362.16
2023-03-04T00:12:46.027Z,96358.88
2023-03-04T00:15:17.308Z,96349.66
2023-03-04T00:17:46.167Z,96354.09
2023-03-04T00:20:16.590Z,96360.66
2023-03-04T00:22:43.282Z,96355.44
2023-03-04T00:25:12.452Z,96355.56
2023-03-04T00:27:41.329Z,96368.50
2023-03-04T00:30:09.685Z,96353.16
2023-03-04T00:32:52.731Z,96347.06
2023-03-04T00:35:19.614Z,96358.19
2023-03-04T00:37:46.289Z,96374.41
2023-03-04T00:40:16.965Z,96378.41
2023-03-04T00:42:45.887Z,96355.78
2023-03-04T00:45:15.252Z,96370.03
2023-03-04T00:47:44.130Z,96358.88
2023-03-04T00:50:11.322Z,96391.28
2023-03-04T00:52:38.187Z,96362.72
2023-03-04T00:55:05.867Z,96375.53
2023-03-04T00:57:34.752Z,96369.56
2023-03-04T01:00:01.455Z,96367.19
2023-03-04T01:02:30.734Z,96359.13
2023-03-04T01:04:57.377Z,96359.72
2023-03-04T01:07:24.063Z,96340.84
2023-03-04T01:09:55.329Z,96361.22
2023-03-04T01:12:24.657Z,96350.78
2023-03-04T01:14:51.353Z,96356.75
2023-03-04T01:17:20.255Z,96341.56
2023-03-04T01:19:51.841Z,96344.53
2023-03-04T01:22:19.150Z,96336.31
2023-03-04T01:24:50.046Z,96340.06
2023-03-04T01:27:19.064Z,96347.59
2023-03-04T01:29:48.285Z,96339.84
2023-03-04T01:32:17.618Z,96334.94
2023-03-04T01:34:46.552Z,96338.09
2023-03-04T01:37:16.484Z,96331.97
2023-03-04T01:39:43.195Z,96342.06
2023-03-04T01:42:21.144Z,96329.28
2023-03-04T01:44:51.269Z,96336.88
2023-03-04T01:47:19.373Z,96325.38
2023-03-04T01:49:51.093Z,96312.75
2023-03-04T01:52:20.603Z,96310.28
2023-03-04T01:54:48.933Z,96321.94
2023-03-04T01:57:20.506Z,96318.94
2023-03-04T02:00:10.659Z,96317.22
2023-03-04T02:02:43.573Z,96320.91
2023-03-04T02:05:13.852Z,96320.19
2023-03-04T02:07:45.222Z,96319.44
2023-03-04T02:10:13.012Z,96303.63
2023-03-04T02:12:40.560Z,96303.03
2023-03-04T02:15:09.916Z,96309.75
2023-03-04T02:17:38.988Z,96305.63
2023-03-04T02:20:48.021Z,96301.56
2023-03-04T02:23:35.655Z,96299.78
2023-03-04T02:26:11.350Z,96304.69
2023-03-04T02:28:40.852Z,96301.13
2023-03-04T02:31:21.815Z,96290.69
2023-03-04T02:33:49.136Z,96299.47
2023-03-04T02:36:18.100Z,96302.81
2023-03-04T02:38:44.899Z,96284.59
2023-03-04T02:41:18.479Z,96282.31
2023-03-04T02:43:48.894Z,96295.28
2023-03-04T02:46:15.611Z,96290.19
2023-03-04T02:48:44.553Z,96297.66
2023-03-04T02:51:11.603Z,96294.22
2023-03-04T02:53:39.075Z,96300.16
2023-03-04T02:56:06.267Z,96299.44
2023-03-04T02:58:36.418Z,96275.78
2023-03-04T03:01:08.195Z,96285.72
2023-03-04T03:03:37.338Z,96309.94
2023-03-04T03:06:04.367Z,96283.63
2023-03-04T03:08:33.666Z,96294.22
2023-03-04T03:11:02.295Z,96294.81
2023-03-04T03:13:35.357Z,96283.47
2023-03-04T03:16:04.175Z,96300.38
2023-03-04T03:18:35.866Z,96311.13
2023-03-04T03:21:06.978Z,96297.47
2023-03-04T03:23:34.845Z,96307.28
2023-03-04T03:26:01.798Z,96308.63
2023-03-04T03:28:30.720Z,96297.50
2023-03-04T03:30:59.467Z,96304.06
2023-03-04T03:33:26.405Z,96303.91
2023-03-04T03:35:56.433Z,96303.47
2023-03-04T03:38:28.218Z,96299.59
2023-03-04T03:40:56.500Z,96300.06
2023-03-04T03:43:24.516Z,96307.03
2023-03-04T03:45:57.078Z,96285.28
2023-03-04T03:48:27.655Z,96287.41
2023-03-04T03:50:55.531Z,96289.00
2023-03-04T03:53:23.356Z,96292.00
2023-03-04T03:55:53.004Z,96289.75
2023-03-04T03:58:20.874Z,96294.66
2023-03-04T04:00:48.651Z,96277.06
2023-03-04T04:03:17.525Z,96268.28
2023-03-04T04:05:45.351Z,96273.63
2023-03-04T04:08:24.892Z,96293.41
2023-03-04T04:10:56.280Z,96287.13
2023-03-04T04:13:23.908Z,96283.53
2023-03-04T04:15:54.741Z,96262.00
2023-03-04T04:18:22.508Z,96284.56
2023-03-04T04:20:52.216Z,96285.34
2023-03-04T04:23:23.059Z,96279.53
2023-03-04T04:25:50.849Z,96280.25
2023-03-04T04:28:18.480Z,96288.31
2023-03-04T04:30:48.351Z,96281.09
2023-03-04T04:33:16.160Z,96312.16
2023-03-04T04:35:48.219Z,96295.78
2023-03-04T04:38:30.629Z,96268.72
2023-03-04T04:41:01.469Z,96275.59
2023-03-04T04:43:28.719Z,96288.34
2023-03-04T04:45:57.956Z,96272.09
2023-03-04T04:48:25.374Z,96284.13
2023-03-04T04:50:56.818Z,96281.88
2023-03-04T04:53:27.145Z,96289.69
2023-03-04T04:55:57.595Z,96303.31
2023-03-04T04:58:25.141Z,96277.91
2023-03-04T05:00:52.591Z,96278.50
2023-03-04T05:03:22.096Z,96289.59
2023-03-04T05:05:50.779Z,96286.25
2023-03-04T05:08:18.446Z,96308.53
2023-03-04T05:10:48.568Z,96288.84
2023-03-04T05:13:16.227Z,96296.59
2023-03-04T05:15:43.837Z,96290.44
2023-03-04T05:18:20.053Z,96287.69
2023-03-04T05:20:54.884Z,96286.81
2023-03-04T05:23:27.771Z,96305.50
2023-03-04T05:25:55.328Z,96279.25
2023-03-04T05:28:22.775Z,96296.22
2023-03-04T05:30:50.698Z,96299.28
2023-03-04T05:33:23.638Z,96309.63
2023-03-04T05:35:51.326Z,96291.00
2023-03-04T05:38:29.111Z,96305.59
2023-03-04T05:41:03.732Z,96306.75
2023-03-04T05:43:38.669Z,96331.91
2023-03-04T05:46:06.231Z,96302.84
2023-03-04T05:48:37.056Z,96323.47
2023-03-04T05:51:15.873Z,96307.47
2023-03-04T05:53:46.619Z,96312.53
2023-03-04T05:56:19.830Z,96306.75
2023-03-04T05:58:50.552Z,96312.38
2023-03-04T06:01:23.732Z,96306.06
2023-03-04T06:03:51.548Z,96307.97
2023-03-04T06:06:22.432Z,96313.34
2023-03-04T06:08:55.523Z,96326.44
2023-03-04T06:11:23.186Z,96304.22
2023-03-04T06:13:51.162Z,96324.03
2023-03-04T06:16:23.172Z,96320.53
2023-03-04T06:18:52.724Z,96319.06
2023-03-04T06:21:24.001Z,96333.06
2023-03-04T06:23:56.440Z,96322.53
2023-03-04T06:26:24.619Z,96322.38
2023-03-04T06:28:55.634Z,96335.28
2023-03-04T06:31:23.899Z,96340.34
2023-03-04T06:33:53.432Z,96326.50
2023-03-04T06:36:21.203Z,96338.44
2023-03-04T06:38:48.964Z,96332.13
2023-03-04T06:41:16.524Z,96347.78
2023-03-04T06:43:44.086Z,96345.16
2023-03-04T06:46:11.537Z,96342.91
2023-03-04T06:48:39.616Z,96354.31
2023-03-04T06:51:13.313Z,96344.56
2023-03-04T06:53:42.205Z,96348.69
2023-03-04T06:56:18.366Z,96351.13
2023-03-04T06:58:46.735Z,96344.56
2023-03-04T07:01:17.030Z,96352.00
2023-03-04T07:03:48.161Z,96360.38
2023-03-04T07:06:17.110Z,96350.78
2023-03-04T07:08:46.710Z,96336.78
2023-03-04T07:11:14.383Z,96351.22
2023-03-04T07:13:43.569Z,96359.22
2023-03-04T07:16:15.919Z,96338.13
2023-03-04T07:18:47.850Z,96353.75
2023-03-04T07:21:15.936Z,96364.72
2023-03-04T07:23:42.982Z,96366.25
2023-03-04T07:26:09.663Z,96368.84
2023-03-04T07:28:46.775Z,96370.81
2023-03-04T07:31:17.174Z,96364.63
2023-03-04T07:33:43.850Z,96364.09
2023-03-04T07:36:11.332Z,96362.06
2023-03-04T07:38:47.358Z,96374.91
2023-03-04T07:41:16.894Z,96374.09
2023-03-04T07:43:46.094Z,96379.50
2023-03-04T07:46:15.790Z,96391.00
2023-03-04T07:48:47.701Z,96393.53
2023-03-04T07:51:22.346Z,96390.00
2023-03-04T07:53:59.445Z,96396.72
2023-03-04T07:56:32.117Z,96402.84
2023-03-04T07:59:01.796Z,96403.00
2023-03-04T08:01:35.034Z,96404.94
2023-03-04T08:04:02.748Z,96410.28
2023-03-04T08:06:29.698Z,96408.69
2023-03-04T08:09:07.024Z,96416.13
2023-03-04T08:11:36.227Z,96408.72
2023-03-04T08:14:02.905Z,96429.22
2023-03-04T08:16:32.177Z,96415.56
2023-03-04T08:19:07.793Z,96405.94
2023-03-04T08:21:39.359Z,96388.84
2023-03-04T08:24:14.084Z,96395.69
2023-03-04T08:26:47.993Z,96400.63
2023-03-04T08:29:23.152Z,96403.16
2023-03-04T08:31:51.993Z,96408.38
2023-03-04T08:34:23.127Z,96405.56
2023-03-04T08:36:49.839Z,96414.34
2023-03-04T08:39:21.313Z,96405.88
2023-03-04T08:41:49.016Z,96406.31
2023-03-04T08:44:16.531Z,96398.31
2023-03-04T08:46:43.884Z,96405.59
2023-03-04T08:49:15.976Z,96400.41
2023-03-04T08:51:45.381Z,96397.91
2023-03-04T08:54:14.502Z,96404.72
2023-03-04T08:56:43.932Z,96408.47
2023-03-04T08:59:10.636Z,96402.97
2023-03-04T09:01:37.468Z,96410.56
2023-03-04T09:04:06.690Z,96395.97
2023-03-04T09:06:35.857Z,96396.28
2023-03-04T09:09:03.406Z,96388.09
2023-03-04T09:11:32.676Z,96390.78
2023-03-04T09:14:01.923Z,96388.25
2023-03-04T09:16:28.667Z,96378.59
2023-03-04T09:18:59.957Z,96378.13
2023-03-04T09:21:28.652Z,96388.81
2023-03-04T09:23:58.132Z,96387.47
2023-03-04T09:26:33.083Z,96392.81
2023-03-04T09:29:03.082Z,96395.22
2023-03-04T09:31:33.067Z,96395.94
2023-03-04T09:34:02.501Z,96396.69
2023-03-04T09:36:31.581Z,96395.16
2023-03-04T09:39:04.959Z,96397.69
2023-03-04T09:41:40.074Z,96400.06
2023-03-04T09:44:19.431Z,96395.28
2023-03-04T09:46:51.036Z,96394.53
2023-03-04T09:49:25.734Z,96394.78
2023-03-04T09:52:10.618Z,96394.50
2023-03-04T09:54:48.524Z,96388.34
2023-03-04T09:57:21.247Z,96386.09
2023-03-04T10:00:05.881Z,96381.47
2023-03-04T10:02:43.396Z,96387.69
2023-03-04T10:05:17.306Z,96385.41
2023-03-04T10:07:52.237Z,96382.41
2023-03-04T10:10:33.336Z,96373.75
2023-03-04T10:13:04.439Z,96372.09
2023-03-04T10:15:37.914Z,96380.09
2023-03-04T10:18:20.633Z,96367.72
2023-03-04T10:20:52.376Z,96365.94
2023-03-04T10:23:24.416Z,96367.34
2023-03-04T10:25:54.402Z,96352.25
2023-03-04T10:28:29.222Z,96353.88
2023-03-04T10:31:04.258Z,96362.50
2023-03-04T10:33:38.171Z,96348.47
2023-03-04T10:36:25.870Z,96360.72
2023-03-04T10:39:06.846Z,96354.88
2023-03-04T10:41:34.085Z,96355.72
2023-03-04T10:44:16.491Z,96354.31
2023-03-04T10:46:47.839Z,96350.16
2023-03-04T10:49:22.238Z,96347.72
2023-03-04T10:51:53.393Z,96345.28
2023-03-04T10:54:26.121Z,96331.47
2023-03-04T10:56:59.860Z,96355.19
2023-03-04T10:59:35.493Z,96343.13
2023-03-04T11:02:17.233Z,96343.50
2023-03-04T11:04:53.640Z,96343.91
2023-03-04T11:07:29.364Z,96335.41
2023-03-04T11:09:58.312Z,96342.81
2023-03-04T11:12:34.049Z,96337.00
2023-03-04T11:15:20.589Z,96330.84
2023-03-04T11:17:55.950Z,96325.88
2023-03-04T11:20:28.920Z,96328.38
2023-03-04T11:23:04.860Z,96341.34
2023-03-04T11:25:44.262Z,96328.13
2023-03-04T11:28:33.400Z,96332.56
2023-03-04T11:31:11.469Z,96333.31
2023-03-04T11:33:56.090Z,96328.59
2023-03-04T11:36:30.313Z,96320.47
2023-03-04T11:38:57.681Z,96310.56
2023-03-04T11:41:38.322Z,96316.88
2023-03-04T11:44:13.121Z,96311.78
2023-03-04T11:47:01.833Z,96322.66
2023-03-04T11:49:47.655Z,96313.50
2023-03-04T11:52:36.407Z,96313.63
2023-03-04T11:55:08.949Z,96313.13
2023-03-04T11:58:06.626Z,96304.75
2023-03-04T12:00:52.971Z,96309.03
2023-03-04T12:03:56.608Z,96298.41
2023-03-04T12:06:28.769Z,96298.41
2023-03-04T12:09:17.859Z,96302.22
2023-03-04T12:12:24.193Z,96297.91
2023-03-04T12:15:21.952Z,96289.75
2023-03-04T12:18:11.620Z,96271.13
2023-03-04T12:20:57.309Z,96280.38
2023-03-04T12:24:10.461Z,96283.22
2023-03-04T12:27:04.167Z,96279.75
2023-03-04T12:29:56.254Z,96272.81
2023-03-04T12:32:45.128Z,96272.69
2023-03-04T12:35:23.581Z,96274.56
2023-03-04T12:37:56.697Z,96274.81
2023-03-04T12:40:36.253Z,96266.16
2023-03-04T12:43:43.229Z,96266.78
2023-03-04T12:46:25.258Z,96261.72
2023-03-04T12:49:10.412Z,96265.81
2023-03-04T12:52:05.085Z,96271.50
2023-03-04T12:54:41.697Z,96248.88
2023-03-04T12:57:14.038Z,96259.28
2023-03-04T12:59:51.038Z,96256.31
2023-03-04T13:02:42.435Z,96242.63
2023-03-04T13:05:24.000Z,96257.94
2023-03-04T13:08:09.579Z,96252.38
2023-03-04T13:10:36.498Z,96250.19
2023-03-04T13:13:03.818Z,96240.19
2023-03-04T13:15:37.516Z,96239.94
2023-03-04T13:18:31.836Z,96236.09
2023-03-04T13:21:17.798Z,96241.91
2023-03-04T13:23:44.453Z,96242.53
2023-03-04T13:26:23.247Z,96239.09
2023-03-04T13:29:17.906Z,96237.34
2023-03-04T13:32:10.751Z,96236.72
2023-03-04T13:34:59.271Z,96230.66
2023-03-04T13:37:25.863Z,96235.97
2023-03-04T13:40:23.536Z,96243.75
2023-03-04T13:42:50.769Z,96226.59
2023-03-04T13:45:36.330Z,96219.69
2023-03-04T13:48:23.507Z,96221.25
2023-03-04T13:50:51.552Z,96222.41
2023-03-04T13:53:29.911Z,96222.16
2023-03-04T13:56:09.375Z,96218.94
2023-03-04T13:58:37.879Z,96234.47
2023-03-04T14:01:32.077Z,96222.59
2023-03-04T14:04:10.552Z,96225.69
2023-03-04T14:06:47.375Z,96226.78
2023-03-04T14:09:20.590Z,96219.50
2023-03-04T14:11:55.005Z,96222.09
2023-03-04T14:14:28.189Z,96223.31
2023-03-04T14:17:01.549Z,96210.47
2023-03-04T14:19:43.126Z,96222.56
2023-03-04T14:22:33.025Z,96218.88
2023-03-04T14:25:23.146Z,96213.41
2023-03-04T14:28:14.534Z,96216.38
2023-03-04T14:30:54.658Z,96208.34
2023-03-04T14:33:25.075Z,96207.94
2023-03-04T14:35:57.001Z,96204.22
2023-03-04T14:38:33.727Z,96217.91
2023-03-04T14:41:10.567Z,96208.41
2023-03-04T14:43:54.098Z,96207.25
2023-03-04T14:46:22.457Z,96210.72
2023-03-04T14:48:56.503Z,96213.88
2023-03-04T14:51:38.418Z,96216.47
2023-03-04T14:54:25.026Z,96198.63
2023-03-04T14:56:51.753Z,96219.56
2023-03-04T14:59:37.388Z,96212.28
2023-03-04T15:02:33.682Z,96212.28
2023-03-04T15:05:16.471Z,96214.09
2023-03-04T15:07:53.688Z,96219.34
2023-03-04T15:10:34.631Z,96201.50
2023-03-04T15:13:07.625Z,96199.63
2023-03-04T15:15:49.733Z,96192.66
2023-03-04T15:18:16.304Z,96182.06
2023-03-04T15:20:55.465Z,96193.66
2023-03-04T15:23:24.424Z,96206.59
2023-03-04T15:25:53.854Z,96203.22
2023-03-04T15:28:26.865Z,96200.25
2023-03-04T15:30:56.057Z,96200.16
2023-03-04T15:33:22.718Z,96208.22
2023-03-04T15:35:55.293Z,96202.88
2023-03-04T15:38:30.782Z,96207.25
2023-03-04T15:41:00.550Z,96198.66
2023-03-04T15:43:29.577Z,96194.94
2023-03-04T15:45:56.358Z,96208.34
2023-03-04T15:48:25.529Z,96197.81
2023-03-04T15:50:56.019Z,96205.88
2023-03-04T15:53:22.675Z,96202.44
2023-03-04T15:55:54.503Z,96205.91
2023-03-04T15:58:25.728Z,96207.44
2023-03-04T16:00:54.837Z,96209.81
2023-03-04T16:03:26.585Z,96216.66
2023-03-04T16:06:00.371Z,96211.31
2023-03-04T16:08:29.277Z,96215.81
2023-03-04T16:11:01.266Z,96202.56
2023-03-04T16:13:30.277Z,96208.84
2023-03-04T16:15:59.884Z,96223.84
2023-03-04T16:18:26.575Z,96206.50
2023-03-04T16:20:55.460Z,96216.59
2023-03-04T16:23:25.172Z,96212.13
2023-03-04T16:25:55.893Z,96212.00
2023-03-04T16:28:25.399Z,96228.94
2023-03-04T16:30:54.412Z,96225.06
2023-03-04T16:33:23.604Z,96220.63
2023-03-04T16:35:53.057Z,96225.41
2023-03-04T16:38:27.093Z,96222.88
2023-03-04T16:40:55.711Z,96239.53
2023-03-04T16:43:28.682Z,96228.22
2023-03-04T16:45:55.470Z,96233.56
2023-03-04T16:48:24.569Z,96227.63
2023-03-04T16:50:53.497Z,96237.28
2023-03-04T16:53:35.706Z,96241.16
2023-03-04T16:56:17.457Z,96235.50
2023-03-04T16:58:50.337Z,96248.88
2023-03-04T17:01:30.772Z,96251.69
2023-03-04T17:03:58.162Z,96248.13
2023-03-04T17:06:28.262Z,96250.63
2023-03-04T17:08:57.891Z,96266.66
2023-03-04T17:11:24.507Z,96250.03
2023-03-04T17:13:51.769Z,96267.13
2023-03-04T17:16:21.139Z,96273.03
2023-03-04T17:18:52.545Z,96270.97
2023-03-04T17:21:25.938Z,96282.69
2023-03-04T17:23:55.114Z,96270.19
2023-03-04T17:26:22.685Z,96267.06
2023-03-04T17:28:52.252Z,96281.63
2023-03-04T17:31:20.250Z,96281.00
2023-03-04T17:33:49.894Z,96292.44
2023-03-04T17:36:20.041Z,96293.47
2023-03-04T17:38:47.213Z,96291.81
2023-03-04T17:41:18.744Z,96302.94
2023-03-04T17:43:50.430Z,96307.72
2023-03-04T17:46:20.522Z,96304.72
2023-03-04T17:48:52.994Z,96316.59
2023-03-04T17:51:33.028Z,96318.38
2023-03-04T17:54:01.348Z,96315.84
2023-03-04T17:56:34.263Z,96292.47
2023-03-04T17:59:06.709Z,96319.09
2023-03-04T18:01:38.193Z,96319.66
2023-03-04T18:04:05.347Z,96317.28
2023-03-04T18:06:36.966Z,96305.81
2023-03-04T18:09:04.300Z,96325.53
2023-03-04T18:11:36.485Z,96320.22
2023-03-04T18:14:03.897Z,96332.09
2023-03-04T18:16:30.930Z,96335.09
2023-03-04T18:18:59.894Z,96335.97
2023-03-04T18:21:28.303Z,96323.00
2023-03-04T18:24:02.569Z,96346.03
2023-03-04T18:26:29.333Z,96325.91
2023-03-04T18:29:00.583Z,96322.19
2023-03-04T18:31:32.160Z,96338.84
2023-03-04T18:34:02.053Z,96332.13
2023-03-04T18:36:29.659Z,96332.41
2023-03-04T18:39:02.391Z,96347.38
2023-03-04T18:41:31.451Z,96336.97
2023-03-04T18:43:58.093Z,96344.22
2023-03-04T18:46:40.190Z,96340.47
2023-03-04T18:49:12.795Z,96313.50
2023-03-04T18:51:42.194Z,96339.06
2023-03-04T18:54:09.075Z,96328.06
2023-03-04T18:56:44.845Z,96324.78
2023-03-04T18:59:17.423Z,96332.28
2023-03-04T19:01:47.626Z,96331.56
2023-03-04T19:04:20.178Z,96342.41
2023-03-04T19:06:49.531Z,96341.50
2023-03-04T19:09:23.186Z,96347.19
2023-03-04T19:11:55.388Z,96347.88
2023-03-04T19:14:26.874Z,96331.41
2023-03-04T19:16:53.800Z,96349.69
2023-03-04T19:19:23.340Z,96357.41
2023-03-04T19:21:52.138Z,96347.53
2023-03-04T19:24:23.675Z,96339.84
2023-03-04T19:26:55.325Z,96346.22
2023-03-04T19:29:25.207Z,96340.53
2023-03-04T19:31:56.952Z,96349.78
2023-03-04T19:34:25.941Z,96358.41
2023-03-04T19:36:55.004Z,96353.94
2023-03-04T19:39:26.792Z,96352.84
2023-03-04T19:41:55.668Z,96337.94
2023-03-04T19:44:22.472Z,96367.84
2023-03-04T19:46:49.121Z,96361.13
2023-03-04T19:49:23.807Z,96353.50
2023-03-04T19:51:50.480Z,96368.50
2023-03-04T19:54:19.902Z,96352.19
2023-03-04T19:56:48.769Z,96356.16
2023-03-04T19:59:18.027Z,96349.78
2023-03-04T20:01:47.724Z,96357.75
2023-03-04T20:04:16.770Z,96353.94
2023-03-04T20:06:45.849Z,96351.28
2023-03-04T20:09:18.879Z,96342.75
2023-03-04T20:11:57.843Z,96340.69
2023-03-04T20:14:30.728Z,96351.84
2023-03-04T20:17:02.490Z,96346.81
2023-03-04T20:19:33.330Z,96352.53
2023-03-04T20:22:02.903Z,96347.50
2023-03-04T20:24:29.586Z,96342.66
2023-03-04T20:26:58.514Z,96336.69
2023-03-04T20:29:28.984Z,96341.34
2023-03-04T20:31:55.652Z,96333.22
2023-03-04T20:34:26.812Z,96336.63
2023-03-04T20:36:57.937Z,96347.41
2023-03-04T20:39:30.446Z,96339.03
2023-03-04T20:41:58.852Z,96342.75
2023-03-04T20:44:25.881Z,96345.75
2023-03-04T20:46:53.000Z,96340.69
2023-03-04T20:49:24.142Z,96340.13
2023-03-04T20:51:55.941Z,96335.81
2023-03-04T20:54:25.245Z,96339.94
2023-03-04T20:56:51.907Z,96334.72
2023-03-04T20:59:18.574Z,96322.97
2023-03-04T21:01:52.092Z,96326.88
2023-03-04T21:04:21.437Z,96325.44
2023-03-04T21:06:51.810Z,96323.97
2023-03-04T21:09:20.892Z,96324.28
2023-03-04T21:11:52.985Z,96303.16
2023-03-04T21:14:28.062Z,96327.34
2023-03-04T21:17:04.702Z,96326.88
2023-03-04T21:19:37.736Z,96321.81
2023-03-04T21:22:06.931Z,96309.38
2023-03-04T21:24:39.904Z,96319.31
2023-03-04T21:27:08.191Z,96288.69
2023-03-04T21:29:39.420Z,96304.91
2023-03-04T21:32:25.235Z,96301.84
2023-03-04T21:34:54.031Z,96301.78
2023-03-04T21:37:24.080Z,96296.81
2023-03-04T21:39:51.090Z,96295.38
2023-03-04T21:42:20.963Z,96288.84
2023-03-04T21:44:50.679Z,96294.47
2023-03-04T21:47:21.500Z,96276.19
2023-03-04T21:49:48.305Z,96276.91
2023-03-04T21:52:15.158Z,96279.41
2023-03-04T21:54:46.711Z,96283.13
2023-03-04T21:57:19.226Z,96269.31
2023-03-04T21:59:46.014Z,96276.09
2023-03-04T22:02:21.589Z,96268.28
2023-03-04T22:04:48.607Z,96276.09
2023-03-04T22:07:18.420Z,96278.50
2023-03-04T22:09:49.599Z,96262.78
2023-03-04T22:12:19.726Z,96268.56
2023-03-04T22:14:46.679Z,96274.38
2023-03-04T22:17:22.973Z,96249.28
2023-03-04T22:19:49.736Z,96266.50
2023-03-04T22:22:21.398Z,96258.72
2023-03-04T22:24:48.070Z,96254.56
2023-03-04T22:27:20.200Z,96262.78
2023-03-04T22:29:46.951Z,96265.59
2023-03-04T22:32:15.467Z,96265.00
2023-03-04T22:34:46.873Z,96264.44
2023-03-04T22:37:18.275Z,96251.53
2023-03-04T22:39:49.794Z,96254.28
2023-03-04T22:42:16.443Z,96261.38
2023-03-04T22:44:43.115Z,96271.06
2023-03-04T22:47:09.717Z,96262.63
2023-03-04T22:49:37.761Z,96269.41
2023-03-04T22:52:04.435Z,96263.44
2023-03-04T22:54:33.478Z,96260.31
2023-03-04T22:57:00.080Z,96249.03
2023-03-04T22:59:29.147Z,96267.00
2023-03-04T23:01:58.893Z,96266.09
2023-03-04T23:04:27.952Z,96256.56
2023-03-04T23:06:56.559Z,96255.25
2023-03-04T23:09:28.024Z,96267.25
2023-03-04T23:11:54.639Z,96264.28
2023-03-04T23:14:21.377Z,96265.00
2023-03-04T23:16:52.461Z,96278.41
2023-03-04T23:19:19.391Z,96260.53
2023-03-04T23:21:48.722Z,96257.56
2023-03-04T23:24:15.377Z,96256.56
2023-03-04T23:26:45.291Z,96257.31
2023-03-04T23:29:16.273Z,96257.00
2023-03-04T23:31:47.482Z,96241.50
2023-03-04T23:34:14.118Z,96243.00
2023-03-04T23:36:46.071Z,96240.59
2023-03-04T23:39:15.018Z,96231.41
2023-03-04T23:41:46.589Z,96245.63
2023-03-04T23:44:15.931Z,96232.34
2023-03-04T23:46:44.585Z,96235.22
2023-03-04T23:49:21.043Z,96230.19
2023-03-04T23:51:50.072Z,96240.13
2023-03-04T23:54:19.215Z,96236.97
2023-03-04T23:56:48.259Z,96237.13
2023-03-04T23:59:17.336Z,96253.19
